createdAt,value
2019-03-04T00:01:01.561Z,12.05
2019-03-04T00:03:32.604Z,12.06
2019-03-04T00:06:03.758Z,12.13
2019-03-04T00:08:35.024Z,12.18
2019-03-04T00:11:05.963Z,12.23
2019-03-04T00:13:36.946Z,12.26
2019-03-04T00:16:08.208Z,12.33
2019-03-04T00:18:39.213Z,12.34
2019-03-04T00:21:10.367Z,12.31
2019-03-04T00:23:41.433Z,12.36
2019-03-04T00:26:12.692Z,12.32
2019-03-04T00:28:44.282Z,12.44
2019-03-04T00:31:15.061Z,12.55
2019-03-04T00:33:46.069Z,12.58
2019-03-04T00:36:17.153Z,12.57
2019-03-04T00:38:48.252Z,12.59
2019-03-04T00:41:19.258Z,12.73
2019-03-04T00:43:50.256Z,12.79
2019-03-04T00:46:21.670Z,12.78
2019-03-04T00:48:52.665Z,12.71
2019-03-04T00:51:23.430Z,12.79
2019-03-04T00:53:54.432Z,12.78
2019-03-04T00:56:25.338Z,12.84
2019-03-04T00:58:56.367Z,12.89
2019-03-04T01:01:27.215Z,12.95
2019-03-04T01:03:58.280Z,12.91
2019-03-04T01:06:29.305Z,13.01
2019-03-04T01:09:00.293Z,12.99
2019-03-04T01:11:31.249Z,13.00
2019-03-04T01:14:02.339Z,13.10
2019-03-04T01:16:33.370Z,13.21
2019-03-04T01:19:04.478Z,13.17
2019-03-04T01:21:36.542Z,13.15
2019-03-04T01:24:07.823Z,13.17
2019-03-04T01:26:38.707Z,13.15
2019-03-04T01:29:10.770Z,13.12
2019-03-04T01:31:43.568Z,13.12
2019-03-04T01:34:15.765Z,13.14
2019-03-04T01:36:47.997Z,13.04
2019-03-04T01:39:19.295Z,13.01
2019-03-04T01:41:50.569Z,12.85
2019-03-04T01:44:21.589Z,12.85
2019-03-04T01:46:52.685Z,12.81
2019-03-04T01:49:23.539Z,12.85
2019-03-04T01:51:54.342Z,12.71
2019-03-04T01:54:28.114Z,12.71
2019-03-04T01:56:58.596Z,12.70
2019-03-04T01:59:29.448Z,12.66
2019-03-04T02:02:00.561Z,12.71
2019-03-04T02:04:31.607Z,12.66
2019-03-04T02:07:02.491Z,12.61
2019-03-04T02:09:33.616Z,12.66
2019-03-04T02:12:04.787Z,12.76
2019-03-04T02:14:35.809Z,12.74
2019-03-04T02:17:06.838Z,12.80
2019-03-04T02:19:37.686Z,12.69
2019-03-04T02:22:08.594Z,12.67
2019-03-04T02:24:39.494Z,12.69
2019-03-04T02:27:10.282Z,12.71
2019-03-04T02:29:41.300Z,12.68
2019-03-04T02:32:12.095Z,12.62
2019-03-04T02:34:43.422Z,12.50
2019-03-04T02:37:14.526Z,12.52
2019-03-04T02:39:45.423Z,12.45
2019-03-04T02:42:16.756Z,12.39
2019-03-04T02:44:48.020Z,12.21
2019-03-04T02:47:18.812Z,12.07
2019-03-04T02:49:50.146Z,11.91
2019-03-04T02:52:21.038Z,11.75
2019-03-04T02:54:52.378Z,11.65
2019-03-04T02:57:23.180Z,11.66
2019-03-04T02:59:54.197Z,11.84
2019-03-04T03:02:25.532Z,11.92
2019-03-04T03:04:56.522Z,12.02
2019-03-04T03:07:27.796Z,12.00
2019-03-04T03:09:58.876Z,12.08
2019-03-04T03:12:29.683Z,12.01
2019-03-04T03:15:00.724Z,11.95
2019-03-04T03:17:33.466Z,11.76
2019-03-04T03:20:05.084Z,11.71
2019-03-04T03:22:36.614Z,11.77
2019-03-04T03:25:08.129Z,11.71
2019-03-04T03:27:39.088Z,11.32
2019-03-04T03:30:10.865Z,11.12
2019-03-04T03:32:41.969Z,11.03
2019-03-04T03:35:13.194Z,10.79
2019-03-04T03:37:44.252Z,10.68
2019-03-04T03:40:15.690Z,10.65
2019-03-04T03:42:47.140Z,10.57
2019-03-04T03:45:18.296Z,10.76
2019-03-04T03:47:49.664Z,11.34
2019-03-04T03:50:20.774Z,11.44
2019-03-04T03:52:51.856Z,11.45
2019-03-04T03:55:22.870Z,11.84
2019-03-04T03:57:54.254Z,11.98
2019-03-04T04:00:25.232Z,12.24
2019-03-04T04:02:56.178Z,12.30
2019-03-04T04:05:27.423Z,12.38
2019-03-04T04:07:58.230Z,12.37
2019-03-04T04:10:29.085Z,12.41
2019-03-04T04:12:59.969Z,12.40
2019-03-04T04:15:31.139Z,12.30
2019-03-04T04:18:02.015Z,12.43
2019-03-04T04:20:33.943Z,12.38
2019-03-04T04:23:05.103Z,12.36
2019-03-04T04:25:36.315Z,12.21
2019-03-04T04:28:09.294Z,12.25
2019-03-04T04:30:40.834Z,12.23
2019-03-04T04:33:11.615Z,12.21
2019-03-04T04:35:42.483Z,12.31
2019-03-04T04:38:13.881Z,12.23
2019-03-04T04:40:45.026Z,12.15
2019-03-04T04:43:16.289Z,12.10
2019-03-04T04:45:47.376Z,12.26
2019-03-04T04:48:18.412Z,12.11
2019-03-04T04:50:49.253Z,12.01
2019-03-04T04:53:20.046Z,11.80
2019-03-04T04:55:51.796Z,11.94
2019-03-04T04:58:22.628Z,12.09
2019-03-04T05:00:54.727Z,12.25
2019-03-04T05:03:26.070Z,12.14
2019-03-04T05:05:57.119Z,12.25
2019-03-04T05:08:28.201Z,12.36
2019-03-04T05:10:59.949Z,12.37
2019-03-04T05:13:31.389Z,12.41
2019-03-04T05:16:02.428Z,12.29
2019-03-04T05:18:33.304Z,12.34
2019-03-04T05:21:06.398Z,12.44
2019-03-04T05:23:37.458Z,12.36
2019-03-04T05:26:08.544Z,12.24
2019-03-04T05:28:39.588Z,12.31
2019-03-04T05:31:10.437Z,12.43
2019-03-04T05:33:41.702Z,12.35
2019-03-04T05:36:12.954Z,12.37
2019-03-04T05:38:44.162Z,12.27
2019-03-04T05:41:14.942Z,12.43
2019-03-04T05:43:47.049Z,12.59
2019-03-04T05:46:18.108Z,12.45
2019-03-04T05:48:49.421Z,12.55
2019-03-04T05:51:21.399Z,12.71
2019-03-04T05:53:52.764Z,12.79
2019-03-04T05:56:24.797Z,12.75
2019-03-04T05:58:56.884Z,12.88
2019-03-04T06:01:30.271Z,12.94
2019-03-04T06:04:03.578Z,13.03
2019-03-04T06:07:09.455Z,12.93
2019-03-04T06:09:40.260Z,12.91
2019-03-04T06:12:11.613Z,12.92
2019-03-04T06:14:42.482Z,13.01
2019-03-04T06:17:13.558Z,12.95
2019-03-04T06:19:44.573Z,12.85
2019-03-04T06:22:15.522Z,12.81
2019-03-04T06:24:46.554Z,12.77
2019-03-04T06:27:17.350Z,12.83
2019-03-04T06:29:48.379Z,12.73
2019-03-04T06:32:19.382Z,12.68
2019-03-04T06:34:50.419Z,12.63
2019-03-04T06:37:21.418Z,12.54
2019-03-04T06:39:52.459Z,12.59
2019-03-04T06:42:23.820Z,12.40
2019-03-04T06:44:54.877Z,12.38
2019-03-04T06:47:25.758Z,12.36
2019-03-04T06:49:56.772Z,12.39
2019-03-04T06:52:27.865Z,12.27
2019-03-04T06:55:24.481Z,12.21
2019-03-04T06:57:55.414Z,12.16
2019-03-04T07:00:50.455Z,11.91
2019-03-04T07:04:07.704Z,11.53
2019-03-04T07:06:38.705Z,11.29
2019-03-04T07:09:17.968Z,11.02
2019-03-04T07:11:52.690Z,11.12
2019-03-04T07:14:23.853Z,11.31
2019-03-04T07:16:55.001Z,11.36
2019-03-04T07:19:27.974Z,11.62
2019-03-04T07:21:59.068Z,11.75
2019-03-04T07:24:30.492Z,11.94
2019-03-04T07:27:01.339Z,12.17
2019-03-04T07:29:32.213Z,12.22
2019-03-04T07:32:03.182Z,12.34
2019-03-04T07:34:34.262Z,12.40
2019-03-04T07:37:05.235Z,12.32
2019-03-04T07:39:36.405Z,12.35
2019-03-04T07:42:07.264Z,12.45
2019-03-04T07:44:38.308Z,12.39
2019-03-04T07:47:09.161Z,12.58
2019-03-04T07:49:40.322Z,12.81
2019-03-04T07:52:11.168Z,12.86
2019-03-04T07:54:42.112Z,13.02
2019-03-04T07:57:13.416Z,12.99
2019-03-04T07:59:44.558Z,13.03
2019-03-04T08:02:15.898Z,13.05
2019-03-04T08:04:46.763Z,13.10
2019-03-04T08:07:42.445Z,13.12
2019-03-04T08:10:45.779Z,13.12
2019-03-04T08:13:26.726Z,13.16
2019-03-04T08:15:58.548Z,13.00
2019-03-04T08:18:29.424Z,12.90
2019-03-04T08:21:00.578Z,12.89
2019-03-04T08:23:31.370Z,12.75
2019-03-04T08:26:02.583Z,12.74
2019-03-04T08:28:33.651Z,12.70
2019-03-04T08:31:04.579Z,12.65
2019-03-04T08:33:35.670Z,12.63
2019-03-04T08:36:06.770Z,12.58
2019-03-04T08:38:37.781Z,12.53
2019-03-04T08:41:08.554Z,12.52
2019-03-04T08:43:39.344Z,12.51
2019-03-04T08:46:10.193Z,12.61
2019-03-04T08:48:41.006Z,12.59
2019-03-04T08:51:11.890Z,12.64
2019-03-04T08:53:43.254Z,12.61
2019-03-04T08:56:14.330Z,12.62
2019-03-04T08:58:45.601Z,12.72
2019-03-04T09:01:16.947Z,12.75
2019-03-04T09:03:47.907Z,12.88
2019-03-04T09:06:18.824Z,13.06
2019-03-04T09:08:50.120Z,13.05
2019-03-04T09:11:21.043Z,13.10
2019-03-04T09:13:51.911Z,13.15
2019-03-04T09:16:22.928Z,13.06
2019-03-04T09:18:54.031Z,13.00
2019-03-04T09:21:25.382Z,12.79
2019-03-04T09:23:56.258Z,12.40
2019-03-04T09:26:28.476Z,12.34
2019-03-04T09:28:59.759Z,11.37
2019-03-04T09:31:30.702Z,10.91
2019-03-04T09:34:01.496Z,10.91
2019-03-04T09:36:32.575Z,11.01
2019-03-04T09:39:05.540Z,11.21
2019-03-04T09:41:37.910Z,11.34
2019-03-04T09:44:08.709Z,11.48
2019-03-04T09:46:39.713Z,11.79
2019-03-04T09:49:10.585Z,11.90
2019-03-04T09:51:41.510Z,12.06
2019-03-04T09:54:12.555Z,12.21
2019-03-04T09:56:44.057Z,12.47
2019-03-04T09:59:14.976Z,12.61
2019-03-04T10:01:55.778Z,12.75
2019-03-04T10:05:03.063Z,12.89
2019-03-04T10:08:21.466Z,12.94
2019-03-04T10:11:08.473Z,12.83
2019-03-04T10:14:38.696Z,12.95
2019-03-04T10:17:39.609Z,13.05
2019-03-04T10:20:57.706Z,13.18
2019-03-04T10:24:15.919Z,13.29
2019-03-04T10:27:07.226Z,13.13
2019-03-04T10:30:09.380Z,12.85
2019-03-04T10:33:19.129Z,12.25
2019-03-04T10:36:33.774Z,11.54
2019-03-04T10:39:42.122Z,11.16
2019-03-04T10:42:39.004Z,10.87
2019-03-04T10:45:29.670Z,10.93
2019-03-04T10:48:00.819Z,10.99
2019-03-04T10:50:31.683Z,11.19
2019-03-04T10:53:02.470Z,11.16
2019-03-04T10:55:41.460Z,11.15
2019-03-04T10:58:06.495Z,10.96
2019-03-04T11:00:37.493Z,10.90
2019-03-04T11:03:08.350Z,10.84
2019-03-04T11:05:39.220Z,10.67
2019-03-04T11:08:10.396Z,10.35
2019-03-04T11:10:41.297Z,9.68
2019-03-04T11:13:13.291Z,9.48
2019-03-04T11:15:44.423Z,9.50
2019-03-04T11:18:16.042Z,9.90
2019-03-04T11:20:47.046Z,10.18
2019-03-04T11:23:17.818Z,10.48
2019-03-04T11:25:48.677Z,10.75
2019-03-04T11:28:19.559Z,10.93
2019-03-04T11:30:50.456Z,11.18
2019-03-04T11:33:21.250Z,11.46
2019-03-04T11:35:52.405Z,11.67
2019-03-04T11:38:37.897Z,11.79
2019-03-04T11:41:10.315Z,11.95
2019-03-04T11:43:41.170Z,11.89
2019-03-04T11:46:12.311Z,12.04
2019-03-04T11:48:43.159Z,12.00
2019-03-04T11:51:14.038Z,12.29
2019-03-04T11:53:44.812Z,12.52
2019-03-04T11:56:15.685Z,12.48
2019-03-04T11:58:46.467Z,12.64
2019-03-04T12:01:25.802Z,12.57
2019-03-04T12:03:56.957Z,12.40
2019-03-04T12:06:27.910Z,12.94
2019-03-04T12:08:59.042Z,12.65
2019-03-04T12:11:38.026Z,12.40
2019-03-04T12:14:03.332Z,12.37
2019-03-04T12:16:34.365Z,11.94
2019-03-04T12:19:06.794Z,11.64
2019-03-04T12:21:38.249Z,11.50
2019-03-04T12:24:09.288Z,11.30
2019-03-04T12:26:40.614Z,11.07
2019-03-04T12:29:11.749Z,11.12
2019-03-04T12:31:53.566Z,11.37
2019-03-04T12:34:25.039Z,11.42
2019-03-04T12:36:57.461Z,11.77
2019-03-04T12:39:28.363Z,12.21
2019-03-04T12:41:59.423Z,12.45
2019-03-04T12:44:30.396Z,12.35
2019-03-04T12:47:01.345Z,12.39
2019-03-04T12:49:32.349Z,12.53
2019-03-04T12:52:03.505Z,12.26
2019-03-04T12:54:34.577Z,11.92
2019-03-04T12:57:05.436Z,11.74
2019-03-04T12:59:36.441Z,11.56
2019-03-04T13:02:07.542Z,11.31
2019-03-04T13:04:38.532Z,10.92
2019-03-04T13:07:09.954Z,10.47
2019-03-04T13:09:40.704Z,10.29
2019-03-04T13:12:11.558Z,10.30
2019-03-04T13:14:43.030Z,10.36
2019-03-04T13:17:14.183Z,10.42
2019-03-04T13:19:45.206Z,10.63
2019-03-04T13:22:16.287Z,10.85
2019-03-04T13:24:47.922Z,10.97
2019-03-04T13:27:23.765Z,10.88
2019-03-04T13:29:51.551Z,10.85
2019-03-04T13:32:22.687Z,10.91
2019-03-04T13:34:54.015Z,11.15
2019-03-04T13:37:25.179Z,11.42
2019-03-04T13:39:56.272Z,11.33
2019-03-04T13:42:27.476Z,11.38
2019-03-04T13:44:58.713Z,11.33
2019-03-04T13:47:29.524Z,11.26
2019-03-04T13:50:00.450Z,11.29
2019-03-04T13:52:31.574Z,11.32
2019-03-04T13:55:02.442Z,11.43
2019-03-04T13:57:33.626Z,11.10
2019-03-04T14:00:05.112Z,10.36
2019-03-04T14:02:37.517Z,10.09
2019-03-04T14:05:08.696Z,9.95
2019-03-04T14:07:39.780Z,10.00
2019-03-04T14:10:11.924Z,10.05
2019-03-04T14:12:43.454Z,10.22
2019-03-04T14:15:26.210Z,10.24
2019-03-04T14:17:57.081Z,10.16
2019-03-04T14:20:28.006Z,10.09
2019-03-04T14:22:58.868Z,10.08
2019-03-04T14:25:30.005Z,10.06
2019-03-04T14:28:01.833Z,10.07
2019-03-04T14:30:33.681Z,10.01
2019-03-04T14:33:04.546Z,10.03
2019-03-04T14:35:35.402Z,10.13
2019-03-04T14:38:06.579Z,10.09
2019-03-04T14:40:37.720Z,10.04
2019-03-04T14:43:08.596Z,9.75
2019-03-04T14:45:39.656Z,9.78
2019-03-04T14:48:10.684Z,9.74
2019-03-04T14:50:41.514Z,9.67
2019-03-04T14:53:12.378Z,9.66
2019-03-04T14:55:43.290Z,9.55
2019-03-04T14:58:14.393Z,9.45
2019-03-04T15:00:47.264Z,9.30
2019-03-04T15:03:23.149Z,9.11
2019-03-04T15:05:51.335Z,8.79
2019-03-04T15:08:23.168Z,8.64
2019-03-04T15:10:54.006Z,8.61
2019-03-04T15:13:24.913Z,8.66
2019-03-04T15:16:01.453Z,8.72
2019-03-04T15:18:28.325Z,8.90
2019-03-04T15:21:00.189Z,9.07
2019-03-04T15:23:31.130Z,9.19
2019-03-04T15:26:02.026Z,9.34
2019-03-04T15:28:33.007Z,9.08
2019-03-04T15:31:04.064Z,8.94
2019-03-04T15:33:34.984Z,8.86
2019-03-04T15:36:05.832Z,8.83
2019-03-04T15:38:37.804Z,8.84
2019-03-04T15:41:08.523Z,8.79
2019-03-04T15:43:40.297Z,8.78
2019-03-04T15:46:11.150Z,8.83
2019-03-04T15:48:42.714Z,8.80
2019-03-04T15:51:13.757Z,8.69
2019-03-04T15:53:44.836Z,8.69
2019-03-04T15:56:15.598Z,8.64
2019-03-04T15:58:47.423Z,8.57
2019-03-04T16:01:18.351Z,8.50
2019-03-04T16:03:49.523Z,8.47
2019-03-04T16:06:20.722Z,8.45
2019-03-04T16:08:51.533Z,8.33
2019-03-04T16:11:23.161Z,8.41
2019-03-04T16:13:56.213Z,8.31
2019-03-04T16:16:27.273Z,8.32
2019-03-04T16:18:58.285Z,8.26
2019-03-04T16:21:29.130Z,8.27
2019-03-04T16:23:59.988Z,8.24
2019-03-04T16:26:31.722Z,8.20
2019-03-04T16:29:02.661Z,8.19
2019-03-04T16:31:33.729Z,8.15
2019-03-04T16:34:04.583Z,8.18
2019-03-04T16:36:35.717Z,8.17
2019-03-04T16:39:06.991Z,8.19
2019-03-04T16:41:38.223Z,8.22
2019-03-04T16:44:09.055Z,8.10
2019-03-04T16:46:40.094Z,8.14
2019-03-04T16:49:10.953Z,8.07
2019-03-04T16:51:41.859Z,7.97
2019-03-04T16:54:12.646Z,7.90
2019-03-04T16:56:43.966Z,7.94
2019-03-04T16:59:14.989Z,7.86
2019-03-04T17:01:46.052Z,7.80
2019-03-04T17:04:17.319Z,7.75
2019-03-04T17:06:48.461Z,7.62
2019-03-04T17:09:19.874Z,7.59
2019-03-04T17:11:50.813Z,7.54
2019-03-04T17:14:21.580Z,7.47
2019-03-04T17:16:53.008Z,7.45
2019-03-04T17:19:24.064Z,7.54
2019-03-04T17:21:55.144Z,7.45
2019-03-04T17:24:26.085Z,7.47
2019-03-04T17:26:56.922Z,7.44
2019-03-04T17:29:27.703Z,7.46
2019-03-04T17:31:58.756Z,7.51
2019-03-04T17:34:29.848Z,7.52
2019-03-04T17:37:00.609Z,7.50
2019-03-04T17:39:31.751Z,7.41
2019-03-04T17:42:02.878Z,7.37
2019-03-04T17:44:33.800Z,7.43
2019-03-04T17:47:04.863Z,7.44
2019-03-04T17:49:35.741Z,7.39
2019-03-04T17:52:06.853Z,7.47
2019-03-04T17:54:38.232Z,7.48
2019-03-04T17:57:09.249Z,7.50
2019-03-04T17:59:40.169Z,7.49
2019-03-04T18:02:11.095Z,7.49
2019-03-04T18:04:42.210Z,7.44
2019-03-04T18:07:13.370Z,7.45
2019-03-04T18:09:44.400Z,7.35
2019-03-04T18:12:15.936Z,7.31
2019-03-04T18:14:46.820Z,7.27
2019-03-04T18:17:17.640Z,7.29
2019-03-04T18:19:48.673Z,7.34
2019-03-04T18:22:20.000Z,7.38
2019-03-04T18:24:50.951Z,7.33
2019-03-04T18:27:48.824Z,7.37
2019-03-04T18:30:30.864Z,7.28
2019-03-04T18:33:58.010Z,7.24
2019-03-04T18:37:06.287Z,7.23
2019-03-04T18:40:13.249Z,7.12
2019-03-04T18:43:16.573Z,7.13
2019-03-04T18:46:22.098Z,7.22
2019-03-04T18:48:57.106Z,7.18
2019-03-04T18:51:30.122Z,7.21
2019-03-04T18:54:03.306Z,7.19
2019-03-04T18:56:34.333Z,7.17
2019-03-04T18:59:06.209Z,7.20
2019-03-04T19:01:37.374Z,7.12
2019-03-04T19:04:08.226Z,7.19
2019-03-04T19:06:39.696Z,7.16
2019-03-04T19:09:11.330Z,7.13
2019-03-04T19:11:44.104Z,7.09
2019-03-04T19:14:15.311Z,7.02
2019-03-04T19:16:46.391Z,7.00
2019-03-04T19:19:17.468Z,6.92
2019-03-04T19:21:48.860Z,6.96
2019-03-04T19:24:19.920Z,7.00
2019-03-04T19:26:50.990Z,7.07
2019-03-04T19:29:21.825Z,7.02
2019-03-04T19:31:52.941Z,7.04
2019-03-04T19:34:24.009Z,7.07
2019-03-04T19:36:55.096Z,7.03
2019-03-04T19:39:26.047Z,7.02
2019-03-04T19:41:57.052Z,6.93
2019-03-04T19:44:28.038Z,6.91
2019-03-04T19:46:58.966Z,6.96
2019-03-04T19:49:30.125Z,6.97
2019-03-04T19:52:01.540Z,6.99
2019-03-04T19:54:32.378Z,6.95
2019-03-04T19:57:03.203Z,6.97
2019-03-04T19:59:34.472Z,7.02
2019-03-04T20:02:05.399Z,6.98
2019-03-04T20:04:36.864Z,7.04
2019-03-04T20:07:07.752Z,7.06
2019-03-04T20:09:38.871Z,7.07
2019-03-04T20:12:09.797Z,7.03
2019-03-04T20:14:40.890Z,7.07
2019-03-04T20:17:13.440Z,7.00
2019-03-04T20:19:44.271Z,7.00
2019-03-04T20:22:15.441Z,7.03
2019-03-04T20:24:46.301Z,6.96
2019-03-04T20:27:17.167Z,6.91
2019-03-04T20:29:48.215Z,6.91
2019-03-04T20:32:19.153Z,6.89
2019-03-04T20:34:50.311Z,6.91
2019-03-04T20:37:21.428Z,6.88
2019-03-04T20:39:52.273Z,6.89
2019-03-04T20:42:23.143Z,6.86
2019-03-04T20:44:54.188Z,6.82
2019-03-04T20:47:24.970Z,6.78
2019-03-04T20:49:55.796Z,6.81
2019-03-04T20:52:26.894Z,6.77
2019-03-04T20:54:58.225Z,6.80
2019-03-04T20:57:29.388Z,6.77
2019-03-04T21:00:00.391Z,6.75
2019-03-04T21:02:32.796Z,6.77
2019-03-04T21:05:04.687Z,6.74
2019-03-04T21:07:37.017Z,6.69
2019-03-04T21:10:08.688Z,6.72
2019-03-04T21:12:41.176Z,6.74
2019-03-04T21:15:12.622Z,6.76
2019-03-04T21:17:43.691Z,6.75
2019-03-04T21:20:16.196Z,6.81
2019-03-04T21:22:47.488Z,6.82
2019-03-04T21:25:35.773Z,6.80
2019-03-04T21:28:14.678Z,6.85
2019-03-04T21:31:29.732Z,6.93
2019-03-04T21:34:36.351Z,6.96
2019-03-04T21:37:29.576Z,6.96
2019-03-04T21:40:07.022Z,7.02
2019-03-04T21:42:49.588Z,7.07
2019-03-04T21:45:54.341Z,7.01
2019-03-04T21:48:29.936Z,6.94
2019-03-04T21:51:07.659Z,6.87
2019-03-04T21:53:42.329Z,6.78
2019-03-04T21:56:32.632Z,6.67
2019-03-04T21:59:04.201Z,6.70
2019-03-04T22:01:51.660Z,6.71
2019-03-04T22:04:23.114Z,6.72
2019-03-04T22:06:54.019Z,6.74
2019-03-04T22:09:26.389Z,6.72
2019-03-04T22:11:57.303Z,6.71
2019-03-04T22:14:28.149Z,6.68
2019-03-04T22:16:59.470Z,6.69
2019-03-04T22:19:30.502Z,6.70
2019-03-04T22:22:01.292Z,6.73
2019-03-04T22:24:32.195Z,6.74
2019-03-04T22:27:03.553Z,6.71
2019-03-04T22:29:34.689Z,6.72
2019-03-04T22:32:05.769Z,6.68
2019-03-04T22:34:36.784Z,6.70
2019-03-04T22:37:07.613Z,6.67
2019-03-04T22:39:38.570Z,6.71
2019-03-04T22:42:09.408Z,6.68
2019-03-04T22:44:40.816Z,6.73
2019-03-04T22:47:11.723Z,6.76
2019-03-04T22:49:42.831Z,6.69
2019-03-04T22:52:14.055Z,6.74
2019-03-04T22:54:45.254Z,6.72
2019-03-04T22:57:16.333Z,6.68
2019-03-04T22:59:47.435Z,6.74
2019-03-04T23:02:18.889Z,6.75
2019-03-04T23:05:16.273Z,6.76
2019-03-04T23:07:49.887Z,6.73
2019-03-04T23:10:39.315Z,6.68
2019-03-04T23:13:17.759Z,6.57
2019-03-04T23:15:50.610Z,6.46
2019-03-04T23:18:21.470Z,6.38
2019-03-04T23:20:52.243Z,6.41
2019-03-04T23:23:23.382Z,6.41
2019-03-04T23:25:56.281Z,6.40
2019-03-04T23:28:27.315Z,6.50
2019-03-04T23:31:00.049Z,6.59
2019-03-04T23:33:30.820Z,6.66
2019-03-04T23:36:02.892Z,6.76
2019-03-04T23:38:34.032Z,6.72
2019-03-04T23:41:04.957Z,6.74
2019-03-04T23:43:35.982Z,6.81
2019-03-04T23:46:07.049Z,6.87
2019-03-04T23:48:38.442Z,6.91
2019-03-04T23:51:09.364Z,6.97
2019-03-04T23:53:40.450Z,6.99
2019-03-04T23:56:11.477Z,7.04
2019-03-04T23:58:42.684Z,7.11
